• Join FlightAware (Why Join?)
  • Login
  • US Flag 
11:30AM EST


 

Airport Tracker/Info


-or-


 

Live Flight TrackerFlight Track Log ✈ JIA2404 ✈ 06-May-2012 ✈ KTRI - KCLT

Flight Track Log - Related Links

Times and Time Zones

All times are in EDT time to prevent confusion due to time zone crossing. See the JIA2404 flight status page for this flight to view local times or setup timezone preferences in your user account.

Time Position Orientation Groundspeed Altitude Reporting Facility
EDT Latitude Longitude Course Direction KTS MPH feet Rate Location/Type
01:19PM 36.4667 -82.3610 248° West  Level FlightAware Approximate
01:19PM 36.4381 -82.4492 162° South 184 212 3,300  Level Atlanta Center
01:24PM 36.1192 -82.3217 173° South 291 335 13,000 1,560 Climbing Atlanta Center
01:25PM 36.0336 -82.3081 174° South 306 352 13,000  Level Atlanta Center
01:26PM 35.9478 -82.2972 170° South 311 358 13,000  Level Atlanta Center
01:27PM 35.8600 -82.2786 126° Southeast 311 358 13,000  Level Atlanta Center
01:28PM 35.8150 -82.2028 113° Southeast 287 330 13,000  Level Atlanta Center
01:29PM 35.7822 -82.1061 113° Southeast 293 337 13,000  Level Atlanta Center
01:30PM 35.7408 -81.9869 113° Southeast 347 399 13,000  Level Atlanta Center
01:31PM 35.7056 -81.8828 113° Southeast 399 459 13,000  Level Atlanta Center
01:32PM 35.6528 -81.7283 112° Southeast 401 461 13,000  Level Atlanta Center
01:33PM 35.6217 -81.6322 121° Southeast 338 389 13,000 -480 Level Atlanta Center
01:34PM 35.5781 -81.5442 128° Southeast 304 350 12,100 -540 Descending Atlanta Center
01:35PM 35.5264 -81.4639 130° Southeast 304 350 12,000 -600 Descending Atlanta Center
01:36PM 35.4683 -81.3792 129° Southeast 309 356 11,000 -1,020 Descending Atlanta Center
01:37PM 35.4186 -81.3042 130° Southeast 303 349 10,000 -540 Descending Atlanta Center
01:38PM 35.3711 -81.2344 130° Southeast 278 320 10,000  Level Atlanta Center
01:39PM 35.3217 -81.1625 130° Southeast 278 320 10,000  Level Atlanta Center
01:40PM 35.2739 -81.0928 167° South 278 320 10,000 -840 Level Atlanta Center
01:42PM 35.1836 -81.0681 176° South 255 293 8,100 -1,260 Descending Atlanta Center
01:43PM 35.1231 -81.0628 175° South 210 242 7,100 -1,080 Descending Atlanta Center
01:44PM 35.0686 -81.0569 179° South 190 219 6,000 -600 Descending Atlanta Center
01:45PM 35.0164 -81.0564 176° South 190 219 6,000 -180 Level Atlanta Center
01:46PM 34.9578 -81.0508 173° South 190 219 5,700 -480 Descending Atlanta Center
01:47PM 34.9014 -81.0428 175° South 199 229 5,000 -360 Descending Atlanta Center
01:48PM 34.8450 -81.0372 121° Southeast 199 229 5,000  Level Atlanta Center
01:49PM 34.8250 -80.9972 64° Northeast 188 216 5,000  Level Atlanta Center
01:50PM 34.8447 -80.9486 North 165 190 5,000  Level Atlanta Center
01:51PM 34.8947 -80.9417 354° North 170 196 5,000  Level Atlanta Center
01:52PM 34.9428 -80.9475 356° North 169 194 5,000 -60 Level Atlanta Center
01:53PM 34.9847 -80.9508 355° North 173 199 4,900 -600 Descending Atlanta Center
01:54PM 35.0411 -80.9564 357° North 176 203 3,800 -900 Descending Atlanta Center
01:57PM 35.1706 -80.9644 357° North 147 169 1,400 -900 Descending Atlanta Center